WXM80 ListenWXM80 Stop

You find our weather info also at:

UK Metoffice

WeatherCloud

Weather Underground

Northeastern Weather Network

AWEKAS

Citizen Weather Observer Program (CWOP)

HAMweather, WeatherForYou, PWS Weather


Weather Underground History page Text

Daily Summary for March 31, 2017 Units:  English    Metric   Both
« Previous Day
Next Day »
Daily Weekly Monthly Yearly Custom
  High: Low: Average:
Temperature: 42.0 °F 37.0 °F 39.1 °F
Dew Point: 39.4 °F 34.8 °F 37.2 °F
Humidity: 97 % 78 % 93 %
Wind Speed: 15.8 mph 0.0 mph 6.4 mph
Wind Gust: 23.0 mph - -
Wind:- - East
Pressure: 30.14 in 29.71 in -
Precipitation: 0.00 in    
Historical Graphs
 
 
Tabular Data for March 31, 2017
Time Temperature Dew Point Pressure Wind Wind Speed Wind Gust Humidity Rainfall Rate (Hourly)
00:01 42.0 °F 36.0 °F 30.10 in SSE 0.1 mph 3.5 mph 79 % 0.00 in
00:06 41.8 °F 36.1 °F 30.11 in South 3.7 mph 5.0 mph 80 % 0.00 in
00:11 41.6 °F 35.9 °F 30.11 in SSW 2.2 mph 4.0 mph 80 % 0.00 in
00:17 41.5 °F 35.8 °F 30.11 in WSW 2.0 mph 4.6 mph 80 % 0.00 in
00:22 41.4 °F 35.7 °F 30.11 in WSW 0.2 mph 1.2 mph 80 % 0.00 in
00:27 41.3 °F 35.6 °F 30.12 in Calm     80 % 0.00 in
00:32 41.3 °F 35.3 °F 30.11 in SW 0.4 mph 2.0 mph 79 % 0.00 in
00:37 41.3 °F 35.3 °F 30.11 in Calm     79 % 0.00 in
00:42 41.2 °F 35.2 °F 30.11 in Calm     79 % 0.00 in
00:47 41.2 °F 35.2 °F 30.11 in Calm     79 % 0.00 in
00:52 41.2 °F 34.9 °F 30.12 in Calm     78 % 0.00 in
00:57 41.1 °F 34.8 °F 30.13 in SW 0.4 mph 1.2 mph 78 % 0.00 in
01:02 41.2 °F 35.2 °F 30.12 in Calm     79 % 0.00 in
01:07 41.1 °F 35.1 °F 30.12 in Calm   1.2 mph 79 % 0.00 in
01:12 41.2 °F 35.2 °F 30.12 in SSE 1.1 mph 3.5 mph 79 % 0.00 in
01:17 41.2 °F 35.2 °F 30.11 in SSE 1.0 mph 4.0 mph 79 % 0.00 in
01:22 41.3 °F 35.2 °F 30.12 in SE 1.0 mph 5.0 mph 79 % 0.00 in
01:27 41.3 °F 35.3 °F 30.12 in South 0.5 mph 2.3 mph 79 % 0.00 in
01:32 41.3 °F 35.3 °F 30.13 in Calm   1.0 mph 79 % 0.00 in
01:37 41.3 °F 35.3 °F 30.13 in Calm   4.0 mph 79 % 0.00 in
01:42 41.3 °F 35.3 °F 30.14 in South 2.0 mph 5.0 mph 79 % 0.00 in
01:47 41.4 °F 35.4 °F 30.13 in SSE 0.8 mph 3.5 mph 79 % 0.00 in
01:52 41.4 °F 35.7 °F 30.13 in SSE 1.0 mph 7.0 mph 80 % 0.00 in
01:57 41.4 °F 35.7 °F 30.13 in SE 0.9 mph 3.0 mph 80 % 0.00 in
02:02 41.4 °F 36.0 °F 30.13 in SSE 2.0 mph 4.6 mph 81 % 0.00 in
02:07 41.4 °F 36.0 °F 30.13 in SSE 0.8 mph 2.3 mph 81 % 0.00 in
02:12 41.3 °F 36.2 °F 30.14 in SSE 1.0 mph 3.0 mph 82 % 0.00 in
02:17 41.3 °F 36.2 °F 30.14 in Calm   3.0 mph 82 % 0.00 in
02:22 41.2 °F 36.7 °F 30.13 in Calm   3.0 mph 84 % 0.00 in
02:27 41.1 °F 36.6 °F 30.13 in Calm   4.0 mph 84 % 0.00 in
02:32 41.0 °F 36.5 °F 30.12 in SSE 0.2 mph 1.2 mph 84 % 0.00 in
02:37 41.0 °F 36.5 °F 30.12 in SE 1.0 mph 3.0 mph 84 % 0.00 in
02:42 40.8 °F 36.7 °F 30.12 in ESE 1.0 mph 3.0 mph 85 % 0.00 in
02:47 40.7 °F 36.5 °F 30.12 in SE 0.5 mph 3.5 mph 85 % 0.00 in
02:52 40.6 °F 36.4 °F 30.12 in SE 1.0 mph 3.0 mph 85 % 0.00 in
02:57 40.5 °F 36.3 °F 30.11 in SE 0.4 mph 2.0 mph 85 % 0.01 in
03:02 40.4 °F 36.5 °F 30.11 in SE 0.6 mph 2.3 mph 86 % 0.01 in
03:08 40.2 °F 36.3 °F 30.11 in SE 0.3 mph 1.2 mph 86 % 0.01 in
03:13 40.1 °F 36.2 °F 30.12 in Calm     86 % 0.01 in
03:18 40.0 °F 36.4 °F 30.13 in Calm   1.2 mph 87 % 0.02 in
03:23 40.0 °F 36.4 °F 30.12 in Calm     87 % 0.02 in
03:28 39.9 °F 36.3 °F 30.13 in Calm     87 % 0.02 in
03:33 39.8 °F 36.5 °F 30.13 in Calm     88 % 0.02 in
03:38 39.7 °F 36.4 °F 30.14 in Calm     88 % 0.02 in
03:43 39.7 °F 36.4 °F 30.14 in Calm     88 % 0.02 in
03:48 39.7 °F 36.7 °F 30.14 in Calm     89 % 0.02 in
03:53 39.6 °F 36.6 °F 30.14 in Calm     89 % 0.01 in
03:58 39.6 °F 36.6 °F 30.13 in Calm     89 % 0.01 in
04:03 39.6 °F 36.6 °F 30.13 in Calm     89 % 0.01 in
04:08 39.5 °F 36.8 °F 30.11 in SE 1.0 mph 2.3 mph 90 % 0.01 in
04:13 39.5 °F 36.8 °F 30.12 in East 1.9 mph 2.3 mph 90 % 0.01 in
04:18 39.2 °F 36.2 °F 30.11 in SE 1.4 mph 3.5 mph 89 % 0.01 in
04:23 38.8 °F 35.6 °F 30.11 in SSE 4.7 mph 7.0 mph 88 % 0.01 in
04:28 38.5 °F 35.3 °F 30.11 in SSE 1.0 mph 3.5 mph 88 % 0.01 in
04:33 38.3 °F 35.1 °F 30.10 in SSE 0.5 mph 1.2 mph 88 % 0.01 in
04:38 38.2 °F 35.0 °F 30.11 in SSE 0.7 mph 2.3 mph 88 % 0.01 in
04:43 38.0 °F 35.0 °F 30.11 in SSE 0.2 mph 1.2 mph 89 % 0.02 in
04:48 37.8 °F 34.8 °F 30.10 in SSE 0.1 mph 1.2 mph 89 % 0.02 in
04:53 37.7 °F 34.8 °F 30.10 in Calm   1.2 mph 89 % 0.02 in
04:58 37.7 °F 35.0 °F 30.10 in SSE 0.9 mph 2.3 mph 90 % 0.02 in
05:03 37.5 °F 35.1 °F 30.10 in SSE 0.3 mph 2.3 mph 91 % 0.02 in
05:08 37.4 °F 35.0 °F 30.10 in Calm     91 % 0.02 in
05:14 37.3 °F 34.9 °F 30.10 in SSE 0.7 mph 1.2 mph 91 % 0.03 in
05:19 37.3 °F 34.9 °F 30.10 in Calm     91 % 0.02 in
05:24 37.3 °F 34.9 °F 30.10 in Calm     91 % 0.02 in
05:29 37.3 °F 35.2 °F 30.10 in SSE 0.1 mph 1.2 mph 92 % 0.05 in
05:34 37.4 °F 35.3 °F 30.10 in Calm     92 % 0.07 in
05:39 37.4 °F 35.6 °F 30.10 in Calm   1.2 mph 93 % 0.08 in
05:44 37.4 °F 35.6 °F 30.10 in SSE 0.2 mph 1.2 mph 93 % 0.07 in
05:49 37.3 °F 35.5 °F 30.09 in ESE 0.7 mph 2.0 mph 93 % 0.07 in
05:54 37.3 °F 35.5 °F 30.09 in ESE 1.0 mph 2.3 mph 93 % 0.07 in
05:59 37.3 °F 35.5 °F 30.09 in ESE 0.6 mph 1.2 mph 93 % 0.07 in
06:04 37.3 °F 35.5 °F 30.08 in ESE 2.0 mph 2.3 mph 93 % 0.07 in
06:09 37.2 °F 35.4 °F 30.08 in ESE 0.9 mph 2.3 mph 93 % 0.07 in
06:14 37.2 °F 35.4 °F 30.08 in ESE 1.1 mph 2.3 mph 93 % 0.06 in
06:19 37.2 °F 35.6 °F 30.08 in East 1.5 mph 4.6 mph 94 % 0.06 in
06:24 37.2 °F 35.6 °F 30.08 in East 1.3 mph 2.3 mph 94 % 0.06 in
06:29 37.2 °F 35.6 °F 30.08 in East 1.5 mph 2.3 mph 94 % 0.03 in
06:34 37.2 °F 35.6 °F 30.08 in East 3.3 mph 5.0 mph 94 % 0.01 in
06:39 37.1 °F 35.5 °F 30.08 in East 2.8 mph 5.0 mph 94 % 0.00 in
06:44 37.1 °F 35.5 °F 30.08 in East 1.9 mph 4.6 mph 94 % 0.00 in
06:49 37.1 °F 35.5 °F 30.08 in East 1.3 mph 2.3 mph 94 % 0.00 in
06:54 37.1 °F 35.5 °F 30.07 in East 1.7 mph 3.5 mph 94 % 0.00 in
06:59 37.1 °F 35.5 °F 30.07 in East 1.7 mph 3.0 mph 94 % 0.00 in
07:04 37.1 °F 35.5 °F 30.08 in SE 0.5 mph 3.5 mph 94 % 0.00 in
07:06 37.1 °F 35.5 °F 30.08 in ESE 0.3 mph 3.5 mph 94 % 0.00 in
07:11 37.1 °F 35.5 °F 30.08 in ESE 2.2 mph 3.5 mph 94 % 0.00 in
07:16 37.1 °F 35.5 °F 30.07 in ESE 2.0 mph 3.5 mph 94 % 0.00 in
07:21 37.0 °F 35.4 °F 30.07 in East 1.4 mph 2.3 mph 94 % 0.00 in
07:26 37.1 °F 35.8 °F 30.07 in East 1.8 mph 3.5 mph 95 % 0.00 in
07:31 37.1 °F 35.5 °F 30.07 in East 2.9 mph 5.0 mph 94 % 0.00 in
07:36 37.1 °F 35.5 °F 30.07 in East 1.6 mph 2.3 mph 94 % 0.00 in
07:41 37.2 °F 35.9 °F 30.07 in East 1.7 mph 3.5 mph 95 % 0.00 in
07:46 37.2 °F 35.9 °F 30.07 in East 1.6 mph 3.5 mph 95 % 0.00 in
07:51 37.3 °F 36.0 °F 30.07 in East 3.8 mph 5.0 mph 95 % 0.00 in
07:56 37.4 °F 36.1 °F 30.07 in East 3.8 mph 5.0 mph 95 % 0.00 in
08:01 37.4 °F 36.1 °F 30.07 in East 3.6 mph 5.8 mph 95 % 0.00 in
08:06 37.5 °F 36.2 °F 30.07 in East 4.9 mph 6.0 mph 95 % 0.00 in
08:11 37.5 °F 36.2 °F 30.07 in East 4.1 mph 6.9 mph 95 % 0.00 in
08:16 37.6 °F 36.3 °F 30.07 in East 5.2 mph 6.9 mph 95 % 0.00 in
08:21 37.7 °F 36.4 °F 30.07 in ENE 3.2 mph 4.6 mph 95 % 0.00 in
08:26 37.8 °F 36.8 °F 30.07 in East 5.8 mph 6.9 mph 96 % 0.00 in
08:31 37.8 °F 36.8 °F 30.07 in East 5.7 mph 8.0 mph 96 % 0.01 in
08:36 37.9 °F 36.9 °F 30.07 in East 4.6 mph 6.9 mph 96 % 0.01 in
08:41 37.9 °F 36.9 °F 30.07 in ENE 5.1 mph 6.0 mph 96 % 0.01 in
08:46 37.8 °F 36.8 °F 30.07 in ENE 5.5 mph 6.9 mph 96 % 0.01 in
08:51 37.8 °F 36.8 °F 30.07 in East 6.5 mph 7.0 mph 96 % 0.01 in
08:56 37.9 °F 36.9 °F 30.06 in ENE 5.6 mph 8.1 mph 96 % 0.01 in
09:01 38.0 °F 37.0 °F 30.06 in ENE 6.4 mph 8.1 mph 96 % 0.01 in
09:06 38.0 °F 37.0 °F 30.06 in East 5.2 mph 6.9 mph 96 % 0.01 in
09:11 38.1 °F 37.1 °F 30.06 in East 6.0 mph 9.2 mph 96 % 0.01 in
09:16 38.1 °F 37.1 °F 30.06 in East 7.3 mph 9.2 mph 96 % 0.01 in
09:21 38.2 °F 37.2 °F 30.06 in East 6.0 mph 8.1 mph 96 % 0.01 in
09:26 38.2 °F 37.2 °F 30.05 in ENE 6.5 mph 9.2 mph 96 % 0.01 in
09:31 38.3 °F 37.3 °F 30.05 in East 6.1 mph 8.1 mph 96 % 0.00 in
09:36 38.4 °F 37.4 °F 30.05 in East 4.4 mph 6.9 mph 96 % 0.00 in
09:41 38.5 °F 37.5 °F 30.04 in East 6.3 mph 8.1 mph 96 % 0.00 in
09:46 38.5 °F 37.5 °F 30.04 in ENE 6.0 mph 9.2 mph 96 % 0.01 in
09:51 38.6 °F 37.6 °F 30.04 in East 5.8 mph 9.2 mph 96 % 0.01 in
09:56 38.6 °F 37.6 °F 30.04 in East 4.5 mph 6.0 mph 96 % 0.01 in
10:01 38.7 °F 37.7 °F 30.04 in East 3.9 mph 6.9 mph 96 % 0.01 in
10:06 38.8 °F 38.0 °F 30.04 in East 5.8 mph 6.9 mph 97 % 0.01 in
10:11 38.9 °F 38.1 °F 30.04 in East 2.5 mph 4.6 mph 97 % 0.01 in
10:16 39.0 °F 38.0 °F 30.03 in ENE 3.5 mph 5.8 mph 96 % 0.01 in
10:21 39.1 °F 38.3 °F 30.04 in East 4.2 mph 6.9 mph 97 % 0.01 in
10:26 39.1 °F 38.3 °F 30.04 in East 3.6 mph 6.9 mph 97 % 0.01 in
10:31 39.2 °F 38.4 °F 30.04 in East 5.6 mph 8.0 mph 97 % 0.01 in
10:36 39.3 °F 38.5 °F 30.03 in East 4.8 mph 6.9 mph 97 % 0.01 in
10:41 39.4 °F 38.6 °F 30.03 in East 4.2 mph 6.9 mph 97 % 0.01 in
10:46 39.5 °F 38.7 °F 30.03 in East 3.2 mph 5.0 mph 97 % 0.00 in
10:51 39.6 °F 38.8 °F 30.03 in East 4.5 mph 6.9 mph 97 % 0.00 in
10:56 39.8 °F 39.0 °F 30.03 in East 2.7 mph 8.1 mph 97 % 0.00 in
11:02 39.8 °F 39.0 °F 30.03 in East 4.3 mph 9.2 mph 97 % 0.00 in
11:06 39.8 °F 39.0 °F 30.02 in SE 4.4 mph 10.4 mph 97 % 0.00 in
11:11 39.9 °F 39.1 °F 30.02 in East 3.8 mph 9.2 mph 97 % 0.00 in
11:16 39.9 °F 39.1 °F 30.02 in East 5.1 mph 6.9 mph 97 % 0.01 in
11:21 39.9 °F 39.1 °F 30.02 in ESE 4.4 mph 6.9 mph 97 % 0.01 in
11:26 40.0 °F 39.2 °F 30.02 in East 7.0 mph 8.1 mph 97 % 0.01 in
11:31 40.0 °F 39.2 °F 30.02 in East 4.6 mph 8.1 mph 97 % 0.01 in
11:36 40.0 °F 39.2 °F 30.02 in East 7.1 mph 10.4 mph 97 % 0.01 in
11:41 40.0 °F 39.2 °F 30.01 in ESE 6.7 mph 11.5 mph 97 % 0.01 in
11:46 40.1 °F 39.3 °F 30.01 in East 6.9 mph 9.2 mph 97 % 0.01 in
11:51 40.1 °F 39.3 °F 30.01 in East 6.1 mph 9.2 mph 97 % 0.01 in
11:57 40.0 °F 39.0 °F 30.01 in East 7.4 mph 10.4 mph 96 % 0.01 in
12:02 39.9 °F 38.9 °F 30.01 in ESE 7.4 mph 10.4 mph 96 % 0.01 in
12:07 39.9 °F 38.9 °F 30.01 in East 5.8 mph 9.2 mph 96 % 0.01 in
12:12 39.9 °F 38.9 °F 30.00 in SE 3.3 mph 6.0 mph 96 % 0.01 in
12:17 40.0 °F 39.0 °F 30.00 in East 8.5 mph 11.5 mph 96 % 0.00 in
12:22 40.0 °F 39.0 °F 30.00 in East 7.2 mph 9.2 mph 96 % 0.00 in
12:27 40.1 °F 39.1 °F 30.00 in ESE 4.4 mph 12.7 mph 96 % 0.00 in
12:32 40.1 °F 39.1 °F 30.00 in East 4.8 mph 7.0 mph 96 % 0.00 in
12:37 40.2 °F 39.2 °F 29.99 in East 3.5 mph 4.6 mph 96 % 0.00 in
12:42 40.3 °F 39.3 °F 29.99 in East 5.2 mph 6.9 mph 96 % 0.00 in
12:47 40.4 °F 39.4 °F 29.99 in East 6.1 mph 8.1 mph 96 % 0.00 in
12:52 40.3 °F 39.3 °F 29.99 in East 5.8 mph 8.0 mph 96 % 0.00 in
12:57 40.3 °F 39.3 °F 29.99 in SE 7.7 mph 12.0 mph 96 % 0.00 in
13:02 40.2 °F 39.2 °F 29.99 in East 5.3 mph 8.1 mph 96 % 0.00 in
13:07 40.2 °F 39.2 °F 29.99 in East 6.0 mph 12.0 mph 96 % 0.00 in
13:12 40.2 °F 39.2 °F 29.99 in East 6.0 mph 9.0 mph 96 % 0.00 in
13:17 40.2 °F 39.2 °F 29.98 in East 9.0 mph 14.0 mph 96 % 0.00 in
13:22 40.1 °F 39.1 °F 29.98 in East 6.9 mph 10.0 mph 96 % 0.00 in
13:27 40.0 °F 39.0 °F 29.98 in East 8.0 mph 16.0 mph 96 % 0.00 in
13:32 39.9 °F 38.6 °F 29.98 in ESE 8.0 mph 16.0 mph 95 % 0.00 in
13:37 39.9 °F 38.6 °F 29.98 in East 6.0 mph 9.2 mph 95 % 0.01 in
13:42 39.8 °F 38.5 °F 29.97 in East 8.4 mph 11.5 mph 95 % 0.01 in
13:47 39.8 °F 38.5 °F 29.97 in East 10.0 mph 14.0 mph 95 % 0.00 in
13:52 39.7 °F 38.4 °F 29.97 in East 11.2 mph 14.0 mph 95 % 0.01 in
13:57 39.6 °F 38.3 °F 29.97 in ESE 10.3 mph 13.0 mph 95 % 0.01 in
14:02 39.5 °F 38.2 °F 29.96 in East 6.1 mph 11.5 mph 95 % 0.01 in
14:07 39.5 °F 38.2 °F 29.96 in East 7.0 mph 9.2 mph 95 % 0.01 in
14:12 39.4 °F 37.8 °F 29.97 in SE 6.0 mph 8.1 mph 94 % 0.01 in
14:17 39.3 °F 37.7 °F 29.96 in East 8.0 mph 9.2 mph 94 % 0.01 in
14:22 39.3 °F 38.0 °F 29.96 in East 8.8 mph 9.2 mph 95 % 0.01 in
14:27 39.2 °F 37.9 °F 29.96 in East 9.4 mph 12.7 mph 95 % 0.00 in
14:32 39.1 °F 37.8 °F 29.96 in East 9.2 mph 13.8 mph 95 % 0.00 in
14:37 39.1 °F 37.8 °F 29.95 in East 8.0 mph 13.0 mph 95 % 0.00 in
14:42 39.1 °F 37.8 °F 29.95 in East 8.0 mph 10.0 mph 95 % 0.00 in
14:47 39.1 °F 37.8 °F 29.94 in East 8.0 mph 16.0 mph 95 % 0.00 in
14:52 39.0 °F 37.7 °F 29.94 in East 9.0 mph 14.0 mph 95 % 0.00 in
14:57 38.9 °F 37.6 °F 29.94 in ESE 10.6 mph 13.0 mph 95 % 0.00 in
15:02 38.9 °F 37.6 °F 29.93 in East 9.0 mph 15.0 mph 95 % 0.00 in
15:07 38.9 °F 37.6 °F 29.94 in East 9.0 mph 14.0 mph 95 % 0.00 in
15:12 38.9 °F 37.6 °F 29.93 in East 10.0 mph 11.0 mph 95 % 0.01 in
15:17 38.8 °F 37.5 °F 29.93 in East 12.0 mph 15.0 mph 95 % 0.00 in
15:22 38.9 °F 37.6 °F 29.93 in East 10.0 mph 14.0 mph 95 % 0.00 in
15:27 38.9 °F 37.6 °F 29.92 in East 10.0 mph 15.0 mph 95 % 0.00 in
15:32 39.0 °F 37.7 °F 29.92 in East 9.0 mph 13.0 mph 95 % 0.00 in
15:37 39.0 °F 37.7 °F 29.92 in East 10.4 mph 12.7 mph 95 % 0.01 in
15:42 39.0 °F 37.7 °F 29.92 in East 8.9 mph 12.7 mph 95 % 0.01 in
15:47 39.1 °F 37.8 °F 29.91 in East 9.0 mph 13.0 mph 95 % 0.00 in
15:52 39.1 °F 37.8 °F 29.91 in East 9.0 mph 14.0 mph 95 % 0.00 in
15:57 39.1 °F 37.8 °F 29.91 in East 8.6 mph 11.5 mph 95 % 0.01 in
16:03 39.1 °F 37.8 °F 29.90 in ESE 9.2 mph 12.7 mph 95 % 0.00 in
16:08 39.1 °F 37.8 °F 29.90 in East 10.1 mph 12.7 mph 95 % 0.00 in
16:13 39.1 °F 37.8 °F 29.89 in East 9.6 mph 11.5 mph 95 % 0.00 in
16:18 39.2 °F 38.2 °F 29.89 in East 11.7 mph 15.0 mph 96 % 0.00 in
16:23 39.1 °F 38.1 °F 29.90 in East 10.1 mph 15.0 mph 96 % 0.00 in
16:28 39.1 °F 37.8 °F 29.90 in East 9.9 mph 15.0 mph 95 % 0.00 in
16:33 39.2 °F 38.2 °F 29.90 in East 10.9 mph 15.0 mph 96 % 0.00 in
16:38 39.2 °F 38.2 °F 29.89 in East 10.6 mph 13.8 mph 96 % 0.00 in
16:43 39.2 °F 38.2 °F 29.88 in East 10.1 mph 16.1 mph 96 % 0.00 in
16:48 39.2 °F 37.9 °F 29.88 in East 11.0 mph 15.0 mph 95 % 0.00 in
16:53 39.2 °F 37.9 °F 29.88 in ESE 11.0 mph 16.1 mph 95 % 0.00 in
16:58 39.2 °F 37.9 °F 29.87 in East 13.2 mph 15.0 mph 95 % 0.01 in
17:03 39.1 °F 37.8 °F 29.87 in East 11.5 mph 15.0 mph 95 % 0.01 in
17:08 39.1 °F 37.8 °F 29.86 in East 11.0 mph 15.0 mph 95 % 0.01 in
17:13 39.1 °F 37.8 °F 29.86 in East 9.6 mph 13.8 mph 95 % 0.01 in
17:18 39.1 °F 37.8 °F 29.86 in East 10.9 mph 15.0 mph 95 % 0.01 in
17:23 39.1 °F 37.8 °F 29.85 in East 13.8 mph 16.1 mph 95 % 0.01 in
17:28 39.1 °F 37.8 °F 29.85 in East 11.4 mph 17.3 mph 95 % 0.01 in
17:33 39.1 °F 38.1 °F 29.85 in East 10.2 mph 12.7 mph 96 % 0.01 in
17:38 39.1 °F 38.1 °F 29.84 in East 11.4 mph 15.0 mph 96 % 0.01 in
17:43 39.1 °F 38.1 °F 29.84 in East 12.5 mph 19.6 mph 96 % 0.01 in
17:49 39.0 °F 38.0 °F 29.84 in East 13.5 mph 17.3 mph 96 % 0.01 in
17:54 39.0 °F 38.0 °F 29.84 in East 10.1 mph 16.1 mph 96 % 0.01 in
17:59 39.0 °F 38.0 °F 29.83 in East 13.5 mph 16.1 mph 96 % 0.01 in
18:04 39.0 °F 38.0 °F 29.83 in ENE 10.0 mph 13.8 mph 96 % 0.01 in
18:09 39.0 °F 38.0 °F 29.83 in East 10.4 mph 14.0 mph 96 % 0.01 in
18:14 39.0 °F 38.0 °F 29.83 in East 10.5 mph 12.7 mph 96 % 0.01 in
18:19 39.0 °F 38.0 °F 29.83 in East 11.9 mph 16.1 mph 96 % 0.01 in
18:24 39.0 °F 38.0 °F 29.82 in East 13.0 mph 17.3 mph 96 % 0.01 in
18:29 39.0 °F 38.0 °F 29.82 in East 10.6 mph 12.7 mph 96 % 0.01 in
18:34 39.0 °F 38.0 °F 29.82 in ENE 11.4 mph 13.8 mph 96 % 0.01 in
18:39 39.1 °F 38.1 °F 29.82 in East 11.7 mph 16.1 mph 96 % 0.01 in
18:44 39.1 °F 38.1 °F 29.82 in East 10.2 mph 13.8 mph 96 % 0.01 in
18:49 39.1 °F 38.1 °F 29.82 in East 11.0 mph 14.0 mph 96 % 0.01 in
18:54 39.1 °F 38.1 °F 29.82 in East 11.4 mph 17.3 mph 96 % 0.01 in
18:59 39.1 °F 38.1 °F 29.82 in ENE 12.3 mph 15.0 mph 96 % 0.00 in
19:05 39.1 °F 38.1 °F 29.81 in East 10.9 mph 13.8 mph 96 % 0.00 in
19:10 39.1 °F 38.1 °F 29.80 in ENE 12.2 mph 17.3 mph 96 % 0.00 in
19:15 39.1 °F 38.1 °F 29.81 in East 10.8 mph 14.0 mph 96 % 0.00 in
19:20 39.1 °F 38.1 °F 29.80 in East 11.0 mph 13.0 mph 96 % 0.00 in
19:25 39.1 °F 38.1 °F 29.80 in East 12.0 mph 16.1 mph 96 % 0.00 in
19:30 39.1 °F 38.1 °F 29.80 in East 10.7 mph 13.8 mph 96 % 0.00 in
19:35 39.1 °F 38.1 °F 29.80 in ENE 10.7 mph 13.8 mph 96 % 0.00 in
19:40 39.1 °F 38.1 °F 29.80 in East 11.5 mph 16.1 mph 96 % 0.01 in
19:45 39.1 °F 38.1 °F 29.79 in East 11.0 mph 13.8 mph 96 % 0.01 in
19:50 39.2 °F 38.2 °F 29.78 in ENE 11.0 mph 13.8 mph 96 % 0.01 in
19:55 39.2 °F 38.2 °F 29.78 in East 12.1 mph 15.0 mph 96 % 0.01 in
20:00 39.2 °F 38.2 °F 29.78 in East 12.5 mph 16.1 mph 96 % 0.01 in
20:05 39.2 °F 38.2 °F 29.78 in ENE 11.6 mph 16.1 mph 96 % 0.01 in
20:10 39.2 °F 38.2 °F 29.78 in East 9.7 mph 13.8 mph 96 % 0.01 in
20:15 39.2 °F 38.2 °F 29.78 in ENE 13.8 mph 15.0 mph 96 % 0.01 in
20:20 39.2 °F 38.2 °F 29.78 in East 10.2 mph 16.1 mph 96 % 0.01 in
20:25 39.2 °F 38.2 °F 29.78 in ENE 8.9 mph 16.1 mph 96 % 0.01 in
20:30 39.2 °F 38.2 °F 29.78 in ENE 11.4 mph 13.8 mph 96 % 0.01 in
20:36 39.2 °F 38.2 °F 29.77 in East 14.3 mph 17.3 mph 96 % 0.01 in
20:41 39.2 °F 38.2 °F 29.78 in East 11.3 mph 17.3 mph 96 % 0.00 in
20:46 39.2 °F 38.2 °F 29.77 in ENE 9.6 mph 15.0 mph 96 % 0.00 in
20:51 39.1 °F 38.1 °F 29.78 in East 8.3 mph 13.8 mph 96 % 0.00 in
20:56 39.0 °F 38.0 °F 29.78 in East 9.3 mph 13.8 mph 96 % 0.00 in
21:01 38.8 °F 37.8 °F 29.78 in ENE 9.1 mph 15.0 mph 96 % 0.01 in
21:06 38.8 °F 37.8 °F 29.78 in East 10.9 mph 16.1 mph 96 % 0.01 in
21:11 38.8 °F 37.8 °F 29.78 in ENE 9.9 mph 13.8 mph 96 % 0.01 in
21:16 38.8 °F 37.8 °F 29.77 in ENE 9.7 mph 12.7 mph 96 % 0.01 in
21:21 38.8 °F 37.8 °F 29.77 in East 11.7 mph 16.1 mph 96 % 0.01 in
21:26 38.8 °F 37.8 °F 29.77 in East 12.9 mph 16.1 mph 96 % 0.01 in
21:31 38.8 °F 38.0 °F 29.76 in ENE 12.3 mph 15.0 mph 97 % 0.01 in
21:36 38.7 °F 37.9 °F 29.76 in ENE 12.5 mph 16.1 mph 97 % 0.01 in
21:41 38.7 °F 37.9 °F 29.76 in ENE 13.3 mph 17.3 mph 97 % 0.01 in
21:46 38.7 °F 37.7 °F 29.76 in ENE 13.8 mph 18.4 mph 96 % 0.01 in
21:51 38.7 °F 37.7 °F 29.76 in ENE 12.9 mph 16.1 mph 96 % 0.01 in
21:56 38.7 °F 37.7 °F 29.75 in ENE 13.8 mph 17.3 mph 96 % 0.01 in
22:01 38.6 °F 37.8 °F 29.74 in ENE 13.5 mph 19.6 mph 97 % 0.00 in
22:06 38.6 °F 37.8 °F 29.74 in NE 13.6 mph 17.3 mph 97 % 0.00 in
22:11 38.6 °F 37.8 °F 29.73 in ENE 14.4 mph 20.7 mph 97 % 0.00 in
22:16 38.6 °F 37.8 °F 29.73 in ENE 13.9 mph 19.6 mph 97 % 0.00 in
22:21 38.5 °F 37.7 °F 29.73 in ENE 13.7 mph 18.0 mph 97 % 0.00 in
22:26 38.4 °F 37.6 °F 29.73 in ENE 13.0 mph 17.3 mph 97 % 0.00 in
22:31 38.4 °F 37.6 °F 29.73 in ENE 14.8 mph 21.9 mph 97 % 0.00 in
22:36 38.4 °F 37.6 °F 29.73 in ENE 12.0 mph 16.1 mph 97 % 0.00 in
22:41 38.3 °F 37.5 °F 29.72 in ENE 15.5 mph 19.6 mph 97 % 0.00 in
22:46 38.3 °F 37.5 °F 29.72 in NE 15.0 mph 18.4 mph 97 % 0.00 in
22:51 38.2 °F 37.4 °F 29.72 in NE 11.6 mph 16.1 mph 97 % 0.00 in
22:56 38.2 °F 37.4 °F 29.72 in ENE 13.8 mph 18.4 mph 97 % 0.00 in
23:01 38.2 °F 37.4 °F 29.72 in ENE 14.1 mph 23.0 mph 97 % 0.00 in
23:06 38.1 °F 37.3 °F 29.72 in East 13.3 mph 17.0 mph 97 % 0.00 in
23:11 38.1 °F 37.3 °F 29.72 in East 13.7 mph 18.4 mph 97 % 0.00 in
23:16 38.0 °F 37.2 °F 29.72 in ENE 12.7 mph 17.3 mph 97 % 0.01 in
23:21 38.0 °F 37.2 °F 29.73 in ENE 14.5 mph 18.4 mph 97 % 0.01 in
23:26 37.9 °F 37.1 °F 29.72 in ENE 13.2 mph 18.4 mph 97 % 0.01 in
23:32 37.8 °F 37.0 °F 29.72 in East 14.0 mph 21.0 mph 97 % 0.01 in
23:37 37.8 °F 37.0 °F 29.72 in ENE 15.4 mph 19.6 mph 97 % 0.01 in
23:42 37.7 °F 36.9 °F 29.72 in ENE 14.5 mph 19.6 mph 97 % 0.01 in
23:47 37.7 °F 36.9 °F 29.71 in East 15.8 mph 21.9 mph 97 % 0.01 in
23:52 37.6 °F 36.8 °F 29.72 in East 14.2 mph 19.6 mph 97 % 0.01 in
23:57 37.6 °F 36.8 °F 29.71 in East 13.5 mph 19.6 mph 97 % 0.01 in
Crab Meadow Weather
Compliments of Weather Underground - 3 mb

Script developed by  Jim McMurry - jmcmurry@mwt.net Adapted for the template by  Wim van der Kuil - Leuven-Template.eu

Lightning: Lightning's return stroke is hotter than the surface of the sun. Lightning is 50,000 degrees F. The sun is about 11,000 degrees F.